Time;durP1;ratioP1;P1;durP2;ratioP2;P2;SDS_P1;SDS_P2;PMS_P1;PMS_P2;Temp;Humidity;BMP_temperature;BMP_pressure;BME280_temperature;BME280_humidity;BME280_pressure;Samples;Min_cycle;Max_cycle;Signal;HPM_P1;HPM_P2
2021/12/01 00:02:09;;;;;;;70.55;27.52;;;;;;;;;;5067548;28;20123;-76
2021/12/01 00:04:35;;;;;;;72.82;27.48;;;;;;;;;;5064977;28;20404;-76
2021/12/01 00:07:01;;;;;;;75.55;29.25;;;;;;;;;;5050226;28;20048;-76
2021/12/01 00:09:27;;;;;;;62.90;28.67;;;;;;;;;;5049976;28;20048;-77
2021/12/01 00:11:54;;;;;;;84.80;33.42;;;;;;;;;;5049287;28;20053;-77
2021/12/01 00:14:20;;;;;;;84.45;33.05;;;;;;;;;;5047920;28;20086;-76
2021/12/01 00:16:47;;;;;;;85.85;34.42;;;;;;;;;;5071476;28;20040;-79
2021/12/01 00:19:13;;;;;;;75.10;33.38;;;;;;;;;;5053899;28;20044;-76
2021/12/01 00:21:39;;;;;;;83.85;35.33;;;;;;;;;;5049067;28;20075;-82
2021/12/01 00:24:05;;;;;;;83.97;36.00;;;;;;;;;;5065863;28;20139;-77
2021/12/01 00:26:31;;;;;;;83.22;36.53;;;;;;;;;;5046123;28;20468;-75
2021/12/01 00:28:57;;;;;;;86.25;36.53;;;;;;;;;;5072135;28;20563;-78
2021/12/01 00:31:23;;;;;;;82.88;36.75;;;;;;;;;;5065056;28;21663;-76
2021/12/01 00:33:49;;;;;;;75.35;36.33;;;;;;;;;;5051730;28;20044;-80
2021/12/01 00:36:15;;;;;;;85.38;37.50;;;;;;;;;;5050274;28;20063;-81
2021/12/01 00:38:42;;;;;;;77.10;36.30;;;;;;;;;;5065518;28;20056;-77
2021/12/01 00:41:09;;;;;;;74.13;36.28;;;;;;;;;;5062415;28;20110;-76
2021/12/01 00:43:39;;;;;;;77.07;35.38;;;;;;;;;;5064430;28;20040;-77
2021/12/01 00:46:20;;;;;;;77.43;35.83;;;;;;;;;;5067773;28;20048;-78
2021/12/01 00:48:47;;;;;;;65.45;32.22;;;;;;;;;;5068750;28;20037;-78
2021/12/01 00:51:13;;;;;;;56.85;33.42;;;;;;;;;;5069044;28;20028;-78
2021/12/01 00:53:39;;;;;;;67.63;31.98;;;;;;;;;;5067707;28;20471;-78
2021/12/01 00:56:05;;;;;;;53.90;29.27;;;;;;;;;;5070884;28;20676;-78
2021/12/01 00:58:31;;;;;;;59.20;30.63;;;;;;;;;;5069978;28;20056;-78
2021/12/01 01:01:00;;;;;;;67.88;31.90;;;;;;;;;;5062389;28;20210;-78
2021/12/01 01:03:28;;;;;;;56.67;28.27;;;;;;;;;;5060302;28;20086;-78
2021/12/01 01:05:54;;;;;;;52.85;28.40;;;;;;;;;;5048226;28;20147;-81
2021/12/01 01:08:20;;;;;;;49.60;26.45;;;;;;;;;;5047340;28;20052;-78
2021/12/01 01:11:08;;;;;;;42.70;24.27;;;;;;;;;;5052140;28;20048;-78
2021/12/01 01:16:24;;;;;;;43.20;22.48;;;;;;;;;;5067320;28;20043;-78
2021/12/01 01:18:52;;;;;;;42.63;23.57;;;;;;;;;;5056916;28;20048;-78
2021/12/01 01:21:19;;;;;;;41.83;22.45;;;;;;;;;;5051789;28;20048;-78
2021/12/01 01:23:45;;;;;;;37.47;20.38;;;;;;;;;;5070413;28;20410;-78
2021/12/01 01:26:14;;;;;;;37.60;19.58;;;;;;;;;;5058859;28;20047;-79
2021/12/01 01:28:41;;;;;;;38.22;20.83;;;;;;;;;;5063749;28;20036;-79
2021/12/01 01:31:08;;;;;;;36.45;21.25;;;;;;;;;;5065932;28;20056;-79
2021/12/01 01:33:34;;;;;;;39.78;18.95;;;;;;;;;;5069636;28;20055;-79
2021/12/01 01:36:00;;;;;;;35.53;18.77;;;;;;;;;;5065950;28;20165;-79
2021/12/01 01:38:29;;;;;;;39.40;18.73;;;;;;;;;;5052981;28;20386;-80
2021/12/01 01:40:55;;;;;;;33.35;17.20;;;;;;;;;;5065243;28;20391;-80
2021/12/01 01:43:21;;;;;;;32.25;14.65;;;;;;;;;;5065807;28;20048;-79
2021/12/01 01:45:47;;;;;;;28.23;14.35;;;;;;;;;;5071519;28;20049;-79
2021/12/01 01:48:14;;;;;;;25.17;13.07;;;;;;;;;;5066183;28;20048;-79
2021/12/01 01:50:41;;;;;;;30.02;11.80;;;;;;;;;;5048679;28;20145;-78
2021/12/01 01:53:13;;;;;;;25.50;9.45;;;;;;;;;;5051479;28;20074;-79
2021/12/01 01:55:40;;;;;;;18.42;9.00;;;;;;;;;;5088533;28;20438;-80
2021/12/01 01:58:07;;;;;;;24.67;8.00;;;;;;;;;;5065351;28;20051;-79
2021/12/01 02:00:40;;;;;;;25.20;7.15;;;;;;;;;;5067662;28;20051;-79
2021/12/01 02:03:06;;;;;;;16.70;7.25;;;;;;;;;;5067438;28;20503;-79
2021/12/01 02:05:37;;;;;;;19.55;6.68;;;;;;;;;;5072350;28;20062;-80
2021/12/01 02:08:03;;;;;;;18.88;6.38;;;;;;;;;;5033277;28;20089;-79
2021/12/01 02:10:29;;;;;;;20.80;5.63;;;;;;;;;;5052338;28;20044;-79
2021/12/01 02:12:56;;;;;;;25.80;7.22;;;;;;;;;;5047493;28;20040;-79
2021/12/01 02:15:22;;;;;;;15.27;4.55;;;;;;;;;;5085988;28;20145;-79
2021/12/01 02:17:48;;;;;;;19.45;5.05;;;;;;;;;;5067789;28;20040;-79
2021/12/01 02:20:19;;;;;;;15.63;4.63;;;;;;;;;;5066559;28;20048;-79
2021/12/01 02:22:45;;;;;;;20.55;4.68;;;;;;;;;;5069190;28;20051;-79
2021/12/01 02:25:11;;;;;;;15.52;4.20;;;;;;;;;;5069581;28;20134;-79
2021/12/01 02:27:37;;;;;;;10.02;3.55;;;;;;;;;;5052754;28;20035;-79
2021/12/01 02:30:03;;;;;;;8.23;3.40;;;;;;;;;;5066696;28;20040;-79
2021/12/01 02:32:29;;;;;;;8.65;3.15;;;;;;;;;;5064904;28;20139;-79
2021/12/01 02:34:55;;;;;;;6.82;3.22;;;;;;;;;;5071568;28;20040;-80
2021/12/01 02:37:22;;;;;;;9.45;3.10;;;;;;;;;;5051681;28;20118;-79
2021/12/01 02:39:51;;;;;;;10.15;3.72;;;;;;;;;;5068199;28;20048;-79
2021/12/01 02:42:21;;;;;;;12.70;3.67;;;;;;;;;;5049031;28;20044;-79
2021/12/01 02:44:47;;;;;;;15.35;4.55;;;;;;;;;;5067831;28;20066;-80
2021/12/01 02:47:14;;;;;;;15.30;4.60;;;;;;;;;;5048765;28;20518;-79
2021/12/01 02:49:40;;;;;;;16.52;4.50;;;;;;;;;;5065334;28;20056;-78
2021/12/01 02:52:06;;;;;;;14.60;3.33;;;;;;;;;;5067524;28;20044;-79
2021/12/01 02:54:32;;;;;;;13.60;3.88;;;;;;;;;;5066679;28;20040;-78
2021/12/01 02:56:59;;;;;;;14.55;3.33;;;;;;;;;;5066064;28;20078;-79
2021/12/01 02:59:26;;;;;;;17.85;3.40;;;;;;;;;;5069357;28;20048;-79
2021/12/01 03:01:53;;;;;;;9.52;2.75;;;;;;;;;;5077440;28;20077;-79
2021/12/01 03:04:20;;;;;;;16.33;3.00;;;;;;;;;;5073024;28;20044;-79
2021/12/01 03:06:47;;;;;;;15.38;3.22;;;;;;;;;;5072036;28;20503;-79
2021/12/01 03:09:14;;;;;;;12.05;3.50;;;;;;;;;;5097741;28;20048;-79
2021/12/01 03:11:40;;;;;;;10.25;3.38;;;;;;;;;;5080760;28;20091;-78
2021/12/01 03:14:11;;;;;;;10.18;2.63;;;;;;;;;;5059998;28;20052;-79
2021/12/01 03:16:37;;;;;;;14.68;3.13;;;;;;;;;;5086757;28;20049;-78
2021/12/01 03:19:04;;;;;;;17.38;3.08;;;;;;;;;;5070362;28;20512;-78
2021/12/01 03:21:30;;;;;;;17.23;3.63;;;;;;;;;;5092488;28;20507;-79
2021/12/01 03:23:56;;;;;;;9.95;2.88;;;;;;;;;;5070329;28;20060;-79
2021/12/01 03:26:22;;;;;;;12.38;3.00;;;;;;;;;;5080785;28;20056;-83
2021/12/01 03:28:48;;;;;;;10.10;3.00;;;;;;;;;;5052900;28;20086;-78
2021/12/01 03:31:14;;;;;;;19.35;3.33;;;;;;;;;;5079145;28;20376;-78
2021/12/01 03:33:41;;;;;;;18.33;3.33;;;;;;;;;;5073792;28;20090;-79
2021/12/01 03:36:07;;;;;;;17.13;3.00;;;;;;;;;;5071365;28;20071;-78
2021/12/01 03:38:33;;;;;;;26.40;4.30;;;;;;;;;;5056717;28;20135;-78
2021/12/01 03:40:59;;;;;;;22.17;4.15;;;;;;;;;;5071575;28;20531;-80
2021/12/01 03:43:26;;;;;;;17.73;3.75;;;;;;;;;;5084859;28;20062;-78
2021/12/01 03:45:52;;;;;;;18.88;3.38;;;;;;;;;;5070886;28;20060;-79
2021/12/01 03:48:18;;;;;;;19.05;4.03;;;;;;;;;;5067860;28;20496;-78
2021/12/01 03:50:49;;;;;;;22.50;3.85;;;;;;;;;;5094541;28;20062;-79
2021/12/01 03:53:16;;;;;;;20.33;3.47;;;;;;;;;;5061175;28;20063;-79
2021/12/01 03:55:42;;;;;;;20.75;3.15;;;;;;;;;;5068757;28;20052;-80
2021/12/01 03:58:08;;;;;;;21.73;3.72;;;;;;;;;;5098959;28;20060;-79
2021/12/01 04:00:34;;;;;;;26.88;3.88;;;;;;;;;;5051252;28;20055;-78
2021/12/01 04:03:00;;;;;;;31.33;3.92;;;;;;;;;;5051880;28;20044;-78
2021/12/01 04:05:27;;;;;;;27.35;3.72;;;;;;;;;;5051484;28;20036;-77
2021/12/01 04:07:53;;;;;;;28.15;3.95;;;;;;;;;;5065337;28;20036;-79
2021/12/01 04:10:20;;;;;;;21.15;3.85;;;;;;;;;;5061955;28;20056;-79
2021/12/01 04:12:46;;;;;;;22.42;3.55;;;;;;;;;;5061220;28;20056;-79
2021/12/01 04:15:13;;;;;;;17.08;4.20;;;;;;;;;;5062970;28;20048;-80
2021/12/01 04:17:40;;;;;;;25.42;3.30;;;;;;;;;;5073755;28;20081;-79
2021/12/01 04:20:07;;;;;;;21.55;3.50;;;;;;;;;;5067007;28;20042;-78
2021/12/01 04:22:33;;;;;;;24.25;4.00;;;;;;;;;;5068800;28;20110;-78
2021/12/01 04:24:59;;;;;;;18.98;3.90;;;;;;;;;;5069441;28;20454;-79
2021/12/01 04:27:25;;;;;;;17.45;4.13;;;;;;;;;;5068293;28;20040;-79
2021/12/01 04:29:51;;;;;;;14.05;3.42;;;;;;;;;;5063845;28;20044;-79
2021/12/01 04:32:17;;;;;;;12.30;3.55;;;;;;;;;;5067115;28;20044;-78
2021/12/01 04:34:43;;;;;;;18.67;3.88;;;;;;;;;;5068302;28;20051;-78
2021/12/01 04:37:09;;;;;;;16.75;4.00;;;;;;;;;;5067503;28;20047;-79
2021/12/01 04:39:35;;;;;;;18.55;3.65;;;;;;;;;;5083901;28;20049;-78
2021/12/01 04:42:05;;;;;;;12.70;4.60;;;;;;;;;;5048726;28;20433;-78
2021/12/01 04:44:32;;;;;;;11.80;3.53;;;;;;;;;;5065447;28;20083;-78
2021/12/01 04:47:00;;;;;;;13.30;3.78;;;;;;;;;;5063083;28;20040;-78
2021/12/01 04:49:26;;;;;;;19.42;4.68;;;;;;;;;;5067353;28;22069;-78
2021/12/01 04:51:55;;;;;;;14.23;4.72;;;;;;;;;;5064937;28;20134;-79
2021/12/01 04:54:21;;;;;;;12.27;4.10;;;;;;;;;;5066849;28;20046;-80
2021/12/01 04:56:48;;;;;;;7.80;4.25;;;;;;;;;;5065378;28;20075;-80
2021/12/01 04:59:15;;;;;;;9.98;4.88;;;;;;;;;;5063800;28;20401;-78
2021/12/01 05:01:41;;;;;;;7.88;4.65;;;;;;;;;;5066102;28;20040;-78
2021/12/01 05:04:08;;;;;;;8.70;5.85;;;;;;;;;;5050237;28;20178;-81
2021/12/01 05:06:34;;;;;;;9.10;4.82;;;;;;;;;;5047355;28;20145;-78
2021/12/01 05:09:00;;;;;;;8.68;4.05;;;;;;;;;;5090302;28;20084;-78
2021/12/01 05:11:27;;;;;;;6.43;4.07;;;;;;;;;;5088228;28;20040;-78
2021/12/01 05:13:54;;;;;;;6.30;3.80;;;;;;;;;;5068619;28;21111;-78
2021/12/01 05:16:20;;;;;;;5.97;3.30;;;;;;;;;;5090621;28;20045;-81
2021/12/01 05:18:46;;;;;;;5.93;3.03;;;;;;;;;;5066573;28;20093;-80
2021/12/01 05:21:12;;;;;;;3.58;2.45;;;;;;;;;;5064743;28;20531;-79
2021/12/01 05:23:38;;;;;;;2.78;2.22;;;;;;;;;;5064473;28;20040;-79
2021/12/01 05:26:06;;;;;;;2.50;2.00;;;;;;;;;;5063678;28;20055;-79
2021/12/01 05:28:32;;;;;;;2.88;2.17;;;;;;;;;;5078354;28;21317;-78
2021/12/01 05:30:59;;;;;;;4.47;1.90;;;;;;;;;;5048074;28;20053;-78
2021/12/01 05:33:25;;;;;;;3.10;1.70;;;;;;;;;;5065743;28;20044;-80
2021/12/01 05:35:51;;;;;;;2.15;1.80;;;;;;;;;;5068791;28;20047;-78
2021/12/01 05:38:17;;;;;;;3.17;1.60;;;;;;;;;;5094767;28;20483;-78
2021/12/01 05:40:45;;;;;;;1.67;1.48;;;;;;;;;;5064208;28;20071;-80
2021/12/01 05:43:11;;;;;;;2.00;1.55;;;;;;;;;;5064625;28;20061;-77
2021/12/01 05:45:38;;;;;;;2.88;1.73;;;;;;;;;;5070290;28;20568;-82
2021/12/01 05:48:04;;;;;;;3.60;2.53;;;;;;;;;;5068563;28;20412;-76
2021/12/01 05:50:30;;;;;;;2.30;1.75;;;;;;;;;;5069414;28;20138;-76
2021/12/01 05:52:56;;;;;;;4.00;2.38;;;;;;;;;;5051015;28;20043;-77
2021/12/01 05:55:23;;;;;;;4.53;2.58;;;;;;;;;;5092289;28;20040;-77
2021/12/01 05:57:49;;;;;;;2.65;2.45;;;;;;;;;;5070234;28;20586;-77
2021/12/01 06:00:16;;;;;;;4.13;2.97;;;;;;;;;;5065572;28;20083;-76
2021/12/01 06:02:43;;;;;;;4.32;2.63;;;;;;;;;;5048308;28;20048;-77
2021/12/01 06:05:09;;;;;;;3.75;2.85;;;;;;;;;;5065727;28;20544;-80
2021/12/01 06:07:35;;;;;;;4.55;3.00;;;;;;;;;;5069089;28;20044;-77
2021/12/01 06:10:02;;;;;;;4.97;3.55;;;;;;;;;;5063211;28;20059;-76
2021/12/01 06:12:29;;;;;;;5.63;4.35;;;;;;;;;;5075377;28;20040;-76
2021/12/01 06:14:56;;;;;;;8.90;4.50;;;;;;;;;;5063312;28;20061;-74
2021/12/01 06:17:22;;;;;;;6.13;5.00;;;;;;;;;;5045644;28;20068;-75
2021/12/01 06:19:48;;;;;;;7.85;5.05;;;;;;;;;;5049782;28;20052;-76
2021/12/01 06:22:14;;;;;;;7.10;4.57;;;;;;;;;;5062396;28;20389;-79
2021/12/01 06:24:40;;;;;;;5.88;3.85;;;;;;;;;;5071042;28;20141;-77
2021/12/01 06:27:07;;;;;;;4.35;3.58;;;;;;;;;;5051792;28;20045;-77
2021/12/01 06:29:33;;;;;;;6.15;3.60;;;;;;;;;;5069393;28;20056;-76
2021/12/01 06:31:59;;;;;;;6.10;3.25;;;;;;;;;;5097917;28;20049;-77
2021/12/01 06:34:26;;;;;;;5.30;3.38;;;;;;;;;;5068809;28;20110;-77
2021/12/01 06:36:52;;;;;;;4.75;3.70;;;;;;;;;;5068801;28;20052;-77
2021/12/01 06:39:18;;;;;;;4.25;3.08;;;;;;;;;;5070533;28;20093;-77
2021/12/01 06:41:44;;;;;;;5.00;3.10;;;;;;;;;;5067178;28;20128;-77
2021/12/01 06:44:10;;;;;;;3.03;2.50;;;;;;;;;;5095820;28;20061;-77
2021/12/01 06:46:36;;;;;;;3.10;2.80;;;;;;;;;;5072531;28;20131;-77
2021/12/01 06:49:02;;;;;;;4.38;2.90;;;;;;;;;;5066035;28;20433;-76
2021/12/01 06:51:29;;;;;;;3.13;2.60;;;;;;;;;;5068957;28;20059;-76
2021/12/01 06:53:55;;;;;;;3.72;3.33;;;;;;;;;;5063754;28;20118;-79
2021/12/01 06:56:21;;;;;;;4.63;3.50;;;;;;;;;;5073750;28;20045;-76
2021/12/01 06:58:48;;;;;;;5.70;3.42;;;;;;;;;;5063633;28;20036;-75
2021/12/01 07:01:14;;;;;;;5.82;4.20;;;;;;;;;;5045698;28;20490;-75
2021/12/01 07:03:40;;;;;;;4.50;3.72;;;;;;;;;;5061528;28;20427;-76
2021/12/01 07:06:07;;;;;;;6.82;4.47;;;;;;;;;;5059884;28;20060;-77
2021/12/01 07:08:35;;;;;;;5.07;4.47;;;;;;;;;;5049331;28;20094;-76
2021/12/01 07:11:01;;;;;;;5.35;4.22;;;;;;;;;;5066327;28;20055;-77
